Time;durP1;ratioP1;P1;durP2;ratioP2;P2;SDS_P1;SDS_P2;PMS_P1;PMS_P2;Temp;Humidity;BMP_temperature;BMP_pressure;BME280_temperature;BME280_humidity;BME280_pressure;Samples;Min_cycle;Max_cycle;Signal;HPM_P1;HPM_P2
2023/01/07 00:02:57;;;;;;;;;;;;;;;10.12;63.75;101072.06;5397770;32;33000;-84
2023/01/07 00:05:59;;;;;;;;;;;;;;;10.25;63.03;101068.25;5399025;32;34241;-84
2023/01/07 00:09:02;;;;;;;;;;;;;;;10.78;61.06;101065.88;5397474;32;33612;-77
2023/01/07 00:12:04;;;;;;;;;;;;;;;10.55;61.69;101068.28;5409424;32;34511;-68
2023/01/07 00:15:06;;;;;;;;;;;;;;;10.60;61.50;101074.28;5396673;32;34223;-69
2023/01/07 00:18:08;;;;;;;;;;;;;;;10.55;61.77;101070.91;5405451;32;34385;-83
2023/01/07 00:21:11;;;;;;;;;;;;;;;10.61;61.32;101076.00;5402846;32;34051;-68
2023/01/07 00:24:13;;;;;;;;;;;;;;;10.82;60.64;101085.06;5396138;32;34121;-84
2023/01/07 00:27:18;;;;;;;;;;;;;;;10.56;61.39;101078.78;5415639;32;43688;-84
2023/01/07 00:30:20;;;;;;;;;;;;;;;10.69;60.84;101081.03;5399435;32;34017;-86
2023/01/07 00:33:21;;;;;;;;;;;;;;;10.85;60.18;101079.72;5412180;32;33159;-85
2023/01/07 00:36:26;;;;;;;;;;;;;;;10.10;62.13;101088.75;5394106;32;34021;-69
2023/01/07 00:39:28;;;;;;;;;;;;;;;9.73;63.29;101090.56;5401332;32;33010;-84
2023/01/07 00:45:51;;;;;;;;;;;;;;;9.97;62.61;101088.19;5396052;32;45795;-84
2023/01/07 00:48:53;;;;;;;;;;;;;;;9.78;63.14;101083.41;5415051;32;34389;-68
2023/01/07 00:51:55;;;;;;;;;;;;;;;10.43;61.59;101079.12;5383320;32;33027;-84
2023/01/07 00:54:57;;;;;;;;;;;;;;;10.51;61.02;101085.94;5414167;32;33319;-85
2023/01/07 00:58:00;;;;;;;;;;;;;;;9.66;64.18;101089.00;5402344;32;33689;-84
2023/01/07 01:01:02;;;;;;;;;;;;;;;9.55;64.66;101092.75;5404544;32;33770;-84
2023/01/07 01:04:05;;;;;;;;;;;;;;;9.75;64.49;101096.62;5415327;32;33401;-77
2023/01/07 01:07:07;;;;;;;;;;;;;;;9.90;63.43;101091.88;5400154;32;34089;-83
2023/01/07 01:10:10;;;;;;;;;;;;;;;9.94;63.37;101098.81;5414413;32;34523;-68
2023/01/07 01:13:13;;;;;;;;;;;;;;;10.32;61.89;101092.59;5401071;32;33585;-69
2023/01/07 01:16:17;;;;;;;;;;;;;;;10.84;60.39;101086.72;5380063;32;960869;-84
2023/01/07 01:19:19;;;;;;;;;;;;;;;10.30;61.34;101081.25;5402646;32;33624;-68
2023/01/07 01:22:21;;;;;;;;;;;;;;;10.30;62.05;101092.62;5397361;32;34171;-69
2023/01/07 01:25:23;;;;;;;;;;;;;;;9.68;64.24;101096.81;5414751;32;33746;-69
2023/01/07 01:28:24;;;;;;;;;;;;;;;9.85;63.72;101083.25;5398485;32;33989;-86
2023/01/07 01:31:27;;;;;;;;;;;;;;;10.52;61.22;101084.16;5412188;32;33010;-84
2023/01/07 01:34:29;;;;;;;;;;;;;;;10.44;61.41;101076.50;5396421;32;33894;-67
2023/01/07 01:37:30;;;;;;;;;;;;;;;10.17;61.85;101078.03;5407184;32;34450;-68
2023/01/07 01:40:32;;;;;;;;;;;;;;;10.32;61.57;101083.84;5401618;32;33919;-77
2023/01/07 01:43:36;;;;;;;;;;;;;;;9.38;64.43;101087.91;5386259;32;34177;-85
2023/01/07 01:46:38;;;;;;;;;;;;;;;9.42;65.84;101087.78;5399493;32;34189;-68
2023/01/07 01:49:43;;;;;;;;;;;;;;;10.03;63.88;101083.66;5398428;32;33548;-84
2023/01/07 01:52:54;;;;;;;;;;;;;;;9.48;65.21;101092.03;5393937;32;33588;-84
2023/01/07 01:55:57;;;;;;;;;;;;;;;9.71;64.76;101081.84;5398582;32;44514;-68
2023/01/07 01:59:00;;;;;;;;;;;;;;;9.92;63.49;101071.72;5388556;32;34040;-68
2023/01/07 02:02:02;;;;;;;;;;;;;;;10.03;63.20;101074.91;5407821;32;33625;-67
2023/01/07 02:05:04;;;;;;;;;;;;;;;10.29;62.32;101061.97;5395560;32;33078;-84
2023/01/07 02:08:07;;;;;;;;;;;;;;;9.40;64.31;101067.72;5413788;32;34445;-77
2023/01/07 02:11:09;;;;;;;;;;;;;;;9.42;65.77;101063.31;5399818;32;33445;-69
2023/01/07 02:14:16;;;;;;;;;;;;;;;9.62;63.68;101061.06;5415013;32;33299;-84
2023/01/07 02:17:18;;;;;;;;;;;;;;;10.46;61.65;101052.78;5400748;32;45490;-83
2023/01/07 02:20:26;;;;;;;;;;;;;;;10.50;60.85;101046.56;5399874;32;34309;-68
2023/01/07 02:23:31;;;;;;;;;;;;;;;9.82;63.01;101051.84;5413772;32;33505;-73
2023/01/07 02:26:51;;;;;;;;;;;;;;;10.21;61.97;101039.44;5397363;32;33597;-69
2023/01/07 02:30:05;;;;;;;;;;;;;;;10.36;61.36;101036.41;5416912;32;45471;-67
2023/01/07 02:33:09;;;;;;;;;;;;;;;10.34;61.16;101034.72;5400608;32;34471;-69
2023/01/07 02:36:17;;;;;;;;;;;;;;;9.96;62.28;101033.97;5396360;32;33781;-84
2023/01/07 02:39:25;;;;;;;;;;;;;;;9.70;63.07;101043.37;5411119;32;45927;-85
2023/01/07 02:42:34;;;;;;;;;;;;;;;9.75;62.83;101038.88;5397209;32;34108;-69
2023/01/07 02:45:47;;;;;;;;;;;;;;;9.65;63.16;101032.12;5410639;32;33819;-68
2023/01/07 02:48:49;;;;;;;;;;;;;;;9.71;62.53;101045.09;5396058;32;46408;-83
2023/01/07 02:51:51;;;;;;;;;;;;;;;8.63;67.72;101044.94;5382738;32;33551;-68
2023/01/07 02:55:04;;;;;;;;;;;;;;;9.33;65.13;101050.41;5403098;32;34440;-68
2023/01/07 02:58:24;;;;;;;;;;;;;;;9.29;65.08;101051.38;5394922;32;32977;-84
2023/01/07 03:01:36;;;;;;;;;;;;;;;9.33;64.68;101045.16;5412136;32;33290;-68
2023/01/07 03:04:47;;;;;;;;;;;;;;;9.08;65.64;101048.38;5398256;32;34237;-68
2023/01/07 03:07:49;;;;;;;;;;;;;;;8.60;67.39;101048.50;5403520;32;45705;-69
2023/01/07 03:10:58;;;;;;;;;;;;;;;8.33;68.46;101052.50;5392918;32;34686;-85
2023/01/07 03:14:17;;;;;;;;;;;;;;;8.75;66.10;101033.34;5396403;32;33724;-85
2023/01/07 03:17:20;;;;;;;;;;;;;;;8.86;65.63;101047.97;5412699;32;44778;-84
2023/01/07 03:20:22;;;;;;;;;;;;;;;8.91;65.83;101038.25;5397505;32;33829;-85
2023/01/07 03:23:24;;;;;;;;;;;;;;;8.28;66.62;101036.00;5409011;32;34049;-69
2023/01/07 03:26:30;;;;;;;;;;;;;;;8.87;65.11;101036.56;5399399;32;33028;-85
2023/01/07 03:29:34;;;;;;;;;;;;;;;8.50;67.74;101033.87;5396775;32;34312;-86
2023/01/07 03:32:37;;;;;;;;;;;;;;;9.04;65.12;101033.59;5411258;32;33525;-68
2023/01/07 03:35:40;;;;;;;;;;;;;;;8.64;65.75;101025.72;5392991;32;33533;-69
2023/01/07 03:38:42;;;;;;;;;;;;;;;8.94;65.07;101032.91;5406489;32;33974;-84
2023/01/07 03:45:12;;;;;;;;;;;;;;;8.59;66.16;101035.44;5386723;32;33849;-78
2023/01/07 03:48:14;;;;;;;;;;;;;;;8.82;65.47;101034.94;5399661;32;34647;-67
2023/01/07 03:51:15;;;;;;;;;;;;;;;8.29;67.77;101036.87;5366910;32;33718;-83
2023/01/07 03:54:17;;;;;;;;;;;;;;;8.85;66.00;101024.41;5407279;32;44794;-83
2023/01/07 03:57:19;;;;;;;;;;;;;;;8.11;68.16;101025.88;5397251;32;33999;-68
2023/01/07 04:00:21;;;;;;;;;;;;;;;8.57;67.42;101029.38;5410756;32;33684;-67
2023/01/07 04:03:23;;;;;;;;;;;;;;;7.60;69.95;101036.38;5400931;32;33595;-70
2023/01/07 04:06:25;;;;;;;;;;;;;;;8.41;67.99;101028.81;5399498;32;33174;-84
2023/01/07 04:09:27;;;;;;;;;;;;;;;8.97;65.32;101034.63;5402457;32;33786;-85
2023/01/07 04:12:29;;;;;;;;;;;;;;;8.93;65.46;101032.97;5398792;32;34050;-69
2023/01/07 04:15:31;;;;;;;;;;;;;;;8.96;65.07;101030.28;5412424;32;33754;-84
2023/01/07 04:18:33;;;;;;;;;;;;;;;9.02;65.26;101032.78;5397007;32;32947;-84
2023/01/07 04:21:35;;;;;;;;;;;;;;;8.25;67.41;101030.00;5398131;32;35278;-67
2023/01/07 04:24:37;;;;;;;;;;;;;;;8.56;66.26;101023.25;5400117;32;33979;-69
2023/01/07 04:27:39;;;;;;;;;;;;;;;7.73;69.03;101029.19;5400190;32;33086;-68
2023/01/07 04:30:41;;;;;;;;;;;;;;;7.35;71.37;101040.25;5415961;32;33646;-68
2023/01/07 04:33:43;;;;;;;;;;;;;;;8.59;67.17;101027.59;5394765;32;33597;-85
2023/01/07 04:36:44;;;;;;;;;;;;;;;8.75;65.51;101034.22;5396167;32;33846;-68
2023/01/07 04:39:46;;;;;;;;;;;;;;;8.55;66.51;101037.25;5394105;32;46114;-68
2023/01/07 04:42:48;;;;;;;;;;;;;;;9.00;64.88;101036.31;5412306;32;33938;-84
2023/01/07 04:45:50;;;;;;;;;;;;;;;8.78;64.40;101047.25;5400426;32;35208;-85
2023/01/07 04:48:52;;;;;;;;;;;;;;;9.00;63.54;101034.53;5400154;32;33603;-85
2023/01/07 04:51:54;;;;;;;;;;;;;;;8.79;64.08;101032.41;5396247;32;33007;-84
2023/01/07 04:54:56;;;;;;;;;;;;;;;8.37;65.44;101033.25;5398965;32;32909;-69
2023/01/07 04:57:58;;;;;;;;;;;;;;;8.01;67.01;101041.78;5414635;32;34443;-69
2023/01/07 05:01:02;;;;;;;;;;;;;;;7.96;67.63;101030.50;5384404;32;33325;-77
2023/01/07 05:04:04;;;;;;;;;;;;;;;7.65;69.12;101040.66;5412640;32;32952;-76
2023/01/07 05:07:06;;;;;;;;;;;;;;;8.23;66.51;101037.84;5404372;32;33224;-85
2023/01/07 05:10:08;;;;;;;;;;;;;;;7.91;67.27;101042.81;5399248;32;34918;-83
2023/01/07 05:13:15;;;;;;;;;;;;;;;7.57;70.15;101046.00;5413706;32;33849;-67
2023/01/07 05:16:17;;;;;;;;;;;;;;;7.72;69.26;101048.34;5395017;32;45075;-69
2023/01/07 05:19:20;;;;;;;;;;;;;;;7.37;71.00;101046.31;5414818;32;33701;-84
2023/01/07 05:22:22;;;;;;;;;;;;;;;7.77;68.83;101046.53;5397867;32;33928;-68
2023/01/07 05:25:24;;;;;;;;;;;;;;;7.18;70.67;101056.19;5408952;32;33907;-68
2023/01/07 05:28:26;;;;;;;;;;;;;;;7.29;70.92;101056.91;5404056;32;34102;-68
2023/01/07 05:31:28;;;;;;;;;;;;;;;7.58;69.91;101047.72;5398006;32;34147;-84
2023/01/07 05:34:30;;;;;;;;;;;;;;;8.21;67.57;101044.88;5412419;32;34639;-69
2023/01/07 05:37:32;;;;;;;;;;;;;;;8.15;67.73;101047.59;5395607;32;33261;-68
2023/01/07 05:40:34;;;;;;;;;;;;;;;8.21;67.55;101049.25;5408099;32;34459;-85
2023/01/07 05:43:36;;;;;;;;;;;;;;;9.03;64.46;101042.34;5398158;32;33759;-68
2023/01/07 05:46:38;;;;;;;;;;;;;;;8.25;66.82;101043.06;5408932;32;34220;-68
2023/01/07 05:49:40;;;;;;;;;;;;;;;7.83;68.69;101049.06;5401021;32;33982;-68
2023/01/07 05:52:42;;;;;;;;;;;;;;;8.42;66.76;101043.63;5380929;32;33591;-68
2023/01/07 05:55:44;;;;;;;;;;;;;;;8.91;65.53;101046.09;5399558;32;34482;-85
2023/01/07 05:58:46;;;;;;;;;;;;;;;8.52;66.59;101052.19;5397881;32;33997;-69
2023/01/07 06:01:47;;;;;;;;;;;;;;;8.47;66.80;101049.66;5410946;32;44932;-68
2023/01/07 06:04:50;;;;;;;;;;;;;;;8.85;65.30;101053.25;5397469;32;33771;-86
2023/01/07 06:07:51;;;;;;;;;;;;;;;8.85;65.45;101050.63;5407399;32;34187;-84
2023/01/07 06:10:53;;;;;;;;;;;;;;;9.18;63.76;101042.00;5405617;32;33997;-77
2023/01/07 06:13:55;;;;;;;;;;;;;;;8.70;65.69;101046.56;5399000;32;32678;-84
2023/01/07 06:16:58;;;;;;;;;;;;;;;8.80;64.40;101052.47;5410726;32;33419;-77
2023/01/07 06:20:00;;;;;;;;;;;;;;;8.22;67.22;101064.06;5395982;32;33097;-68
2023/01/07 06:23:03;;;;;;;;;;;;;;;8.66;65.99;101051.00;5411282;32;32991;-84
2023/01/07 06:26:05;;;;;;;;;;;;;;;8.82;64.90;101050.66;5400536;32;33613;-84
2023/01/07 06:29:08;;;;;;;;;;;;;;;8.59;66.00;101046.78;5406964;32;33749;-83
2023/01/07 06:32:10;;;;;;;;;;;;;;;8.80;64.60;101044.59;5407868;32;34601;-85
2023/01/07 06:35:12;;;;;;;;;;;;;;;8.76;64.88;101046.44;5393808;32;33912;-70
2023/01/07 06:38:14;;;;;;;;;;;;;;;8.53;65.11;101044.28;5410718;32;33701;-85
2023/01/07 06:41:16;;;;;;;;;;;;;;;8.84;64.12;101044.50;5385334;32;44426;-68
2023/01/07 06:44:18;;;;;;;;;;;;;;;8.63;63.34;101034.47;5412087;32;34197;-69
2023/01/07 06:47:20;;;;;;;;;;;;;;;8.63;63.19;101045.84;5399180;32;33946;-85
2023/01/07 06:50:22;;;;;;;;;;;;;;;8.56;63.89;101046.81;5396113;32;34539;-69
2023/01/07 06:53:24;;;;;;;;;;;;;;;8.26;64.91;101045.66;5394471;32;35328;-68
2023/01/07 06:56:26;;;;;;;;;;;;;;;8.58;63.54;101055.53;5397533;32;34566;-68
2023/01/07 06:59:28;;;;;;;;;;;;;;;8.71;63.17;101052.69;5411717;32;33752;-68
2023/01/07 07:02:30;;;;;;;;;;;;;;;8.13;65.22;101063.34;5397044;32;34683;-84
2023/01/07 07:05:32;;;;;;;;;;;;;;;8.55;63.70;101068.69;5412122;32;34143;-71
2023/01/07 07:08:34;;;;;;;;;;;;;;;8.19;64.65;101070.25;5395453;32;33239;-69
2023/01/07 07:11:36;;;;;;;;;;;;;;;8.52;63.17;101068.75;5403873;32;34298;-68
2023/01/07 07:14:40;;;;;;;;;;;;;;;8.22;64.49;101075.41;5407660;32;33901;-67
2023/01/07 07:17:42;;;;;;;;;;;;;;;8.41;63.53;101074.19;5397692;32;33794;-86
2023/01/07 07:20:45;;;;;;;;;;;;;;;6.72;70.22;101064.66;5414806;32;33702;-85
2023/01/07 07:23:47;;;;;;;;;;;;;;;6.89;70.33;101072.28;5396990;32;44767;-84
2023/01/07 07:26:49;;;;;;;;;;;;;;;6.87;70.08;101076.66;5411247;32;34029;-85
2023/01/07 07:29:50;;;;;;;;;;;;;;;7.27;69.48;101065.66;5385312;32;33870;-69
2023/01/07 07:32:52;;;;;;;;;;;;;;;7.40;68.94;101076.78;5400919;32;34221;-68
2023/01/07 07:35:55;;;;;;;;;;;;;;;7.85;67.78;101067.34;5409385;32;34261;-68
2023/01/07 07:38:57;;;;;;;;;;;;;;;8.04;66.50;101081.81;5395081;32;32960;-69
2023/01/07 07:42:01;;;;;;;;;;;;;;;7.92;66.62;101082.06;5415009;32;34112;-67
2023/01/07 07:45:04;;;;;;;;;;;;;;;7.57;68.91;101082.62;5397281;32;34193;-68
2023/01/07 07:48:06;;;;;;;;;;;;;;;7.46;68.98;101093.25;5413991;32;33633;-69
2023/01/07 07:51:08;;;;;;;;;;;;;;;7.90;68.49;101073.34;5382718;32;34054;-68
2023/01/07 07:54:10;;;;;;;;;;;;;;;7.76;69.24;101093.66;5399729;32;34073;-69
2023/01/07 07:57:12;;;;;;;;;;;;;;;7.76;69.64;101096.28;5410670;32;33391;-83
2023/01/07 08:00:15;;;;;;;;;;;;;;;7.70;69.37;101096.38;5399274;32;34312;-69
2023/01/07 08:03:17;;;;;;;;;;;;;;;8.24;68.40;101093.69;5413039;32;45239;-69
2023/01/07 08:06:19;;;;;;;;;;;;;;;8.27;66.55;101084.03;5400084;32;33558;-69
2023/01/07 08:09:21;;;;;;;;;;;;;;;7.78;68.98;101090.13;5412298;32;34023;-68
2023/01/07 08:12:23;;;;;;;;;;;;;;;8.31;67.26;101077.87;5400677;32;33977;-83
2023/01/07 08:15:24;;;;;;;;;;;;;;;9.13;65.12;101083.19;5401691;32;33266;-85
2023/01/07 08:18:26;;;;;;;;;;;;;;;9.02;64.27;101077.34;5412283;32;34120;-68
2023/01/07 08:21:28;;;;;;;;;;;;;;;8.50;65.86;101088.00;5384002;32;33859;-68
2023/01/07 08:24:30;;;;;;;;;;;;;;;8.53;66.52;101080.09;5414371;32;32966;-70
2023/01/07 08:27:32;;;;;;;;;;;;;;;8.91;65.16;101072.31;5395801;32;33592;-70
2023/01/07 08:30:34;;;;;;;;;;;;;;;8.95;65.39;101074.00;5413727;32;33680;-77
2023/01/07 08:33:37;;;;;;;;;;;;;;;9.37;64.00;101088.78;5394336;32;34290;-76
2023/01/07 08:36:39;;;;;;;;;;;;;;;10.55;59.34;101063.87;5395122;32;33344;-69
2023/01/07 08:39:41;;;;;;;;;;;;;;;10.58;58.82;101062.97;5410212;32;33675;-85
2023/01/07 08:42:43;;;;;;;;;;;;;;;9.91;60.51;101068.22;5380169;32;34019;-68
2023/01/07 08:45:48;;;;;;;;;;;;;;;9.44;63.34;101065.00;5411780;32;34468;-85
2023/01/07 08:48:50;;;;;;;;;;;;;;;9.82;62.32;101073.72;5398016;32;45193;-84
2023/01/07 08:51:55;;;;;;;;;;;;;;;10.17;61.12;101053.53;5388048;32;33730;-69
2023/01/07 08:54:57;;;;;;;;;;;;;;;9.85;62.16;101060.50;5395291;32;33950;-69
2023/01/07 08:57:59;;;;;;;;;;;;;;;9.83;62.81;101056.19;5396927;32;33089;-69
2023/01/07 09:01:01;;;;;;;;;;;;;;;10.58;61.09;101048.06;5414966;32;33726;-68
2023/01/07 09:04:04;;;;;;;;;;;;;;;10.48;61.15;101045.72;5395335;32;33077;-84
2023/01/07 09:07:06;;;;;;;;;;;;;;;10.76;59.91;101051.91;5412387;32;33908;-86
2023/01/07 09:10:08;;;;;;;;;;;;;;;11.13;59.06;101059.53;5397452;32;33344;-86
2023/01/07 09:13:10;;;;;;;;;;;;;;;10.81;59.68;101057.87;5408301;32;33901;-68
2023/01/07 09:16:12;;;;;;;;;;;;;;;11.13;57.93;101053.41;5398409;32;33861;-84
2023/01/07 09:19:15;;;;;;;;;;;;;;;11.33;58.42;101053.69;5395872;32;34423;-67
2023/01/07 09:22:17;;;;;;;;;;;;;;;11.14;58.12;101055.13;5412819;32;43095;-69
2023/01/07 09:25:19;;;;;;;;;;;;;;;10.83;59.54;101063.97;5395527;32;34580;-68
2023/01/07 09:28:21;;;;;;;;;;;;;;;11.60;57.48;101059.84;5413141;32;33863;-85
2023/01/07 09:31:22;;;;;;;;;;;;;;;11.60;57.69;101056.34;5399615;32;32995;-86
2023/01/07 09:34:25;;;;;;;;;;;;;;;11.12;59.79;101055.19;5391368;32;33766;-68
2023/01/07 09:37:27;;;;;;;;;;;;;;;11.85;57.77;101049.38;5397290;32;33903;-86
2023/01/07 09:40:40;;;;;;;;;;;;;;;11.28;59.74;101042.44;5397338;32;33209;-84
2023/01/07 09:43:43;;;;;;;;;;;;;;;11.63;58.84;101038.66;5410707;32;33873;-84
2023/01/07 09:47:02;;;;;;;;;;;;;;;11.98;57.94;101035.75;5396865;32;33092;-69
2023/01/07 09:50:08;;;;;;;;;;;;;;;11.88;58.05;101027.34;5408566;32;32999;-70
2023/01/07 09:53:25;;;;;;;;;;;;;;;11.99;57.92;101038.38;5384226;32;33243;-67
2023/01/07 09:56:34;;;;;;;;;;;;;;;12.50;56.48;101026.03;5394464;32;33119;-84
2023/01/07 09:59:35;;;;;;;;;;;;;;;12.61;56.19;101023.84;5410192;32;33599;-69
2023/01/07 10:02:56;;;;;;;;;;;;;;;12.56;56.30;101015.22;5396586;32;34286;-69
2023/01/07 10:06:09;;;;;;;;;;;;;;;12.01;57.40;101019.87;5396742;32;33485;-87
2023/01/07 10:09:18;;;;;;;;;;;;;;;12.26;57.40;101018.09;5399807;32;33720;-68
2023/01/07 10:12:20;;;;;;;;;;;;;;;12.51;57.00;101014.56;5394259;32;44666;-84
2023/01/07 10:15:22;;;;;;;;;;;;;;;12.62;56.54;101010.63;5412920;32;33200;-83
2023/01/07 10:18:32;;;;;;;;;;;;;;;12.82;55.97;101004.56;5391905;32;33078;-68
2023/01/07 10:21:37;;;;;;;;;;;;;;;13.09;55.43;101004.41;5411869;32;33471;-84
2023/01/07 10:24:40;;;;;;;;;;;;;;;13.24;55.09;101003.81;5396506;32;33126;-69
2023/01/07 10:27:42;;;;;;;;;;;;;;;13.37;54.60;100997.13;5401983;32;35403;-68
2023/01/07 10:30:45;;;;;;;;;;;;;;;13.57;54.14;100985.72;5405265;32;34302;-84
2023/01/07 10:33:47;;;;;;;;;;;;;;;13.69;54.01;100993.16;5391674;32;44572;-84
2023/01/07 10:36:59;;;;;;;;;;;;;;;13.17;55.17;100987.34;5408925;32;33787;-85
2023/01/07 10:40:16;;;;;;;;;;;;;;;13.18;55.07;100986.41;5391965;32;34532;-84
2023/01/07 10:43:27;;;;;;;;;;;;;;;12.68;56.75;100983.13;5410762;32;47204;-84
2023/01/07 10:46:32;;;;;;;;;;;;;;;13.29;55.65;100975.47;5389249;32;33723;-71
2023/01/07 10:49:40;;;;;;;;;;;;;;;12.95;55.99;100983.84;5395347;32;34705;-85
2023/01/07 10:52:42;;;;;;;;;;;;;;;12.92;56.67;100976.91;5390271;32;33795;-87
2023/01/07 10:55:52;;;;;;;;;;;;;;;13.90;54.04;100964.94;5398583;32;34123;-86
2023/01/07 10:58:54;;;;;;;;;;;;;;;14.26;52.83;100958.94;5409477;32;44425;-70
2023/01/07 11:01:57;;;;;;;;;;;;;;;13.95;53.85;100954.16;5398842;32;34880;-73
2023/01/07 11:04:59;;;;;;;;;;;;;;;14.36;52.54;100954.94;5399175;32;33590;-85
2023/01/07 11:08:01;;;;;;;;;;;;;;;14.57;51.60;100943.44;5408544;32;33700;-85
2023/01/07 11:11:03;;;;;;;;;;;;;;;14.28;52.37;100944.72;5395826;32;33795;-79
2023/01/07 11:14:08;;;;;;;;;;;;;;;14.03;52.90;100936.19;5412267;32;33129;-85
2023/01/07 11:17:13;;;;;;;;;;;;;;;14.29;53.71;100933.22;5397311;32;33736;-85
2023/01/07 11:20:35;;;;;;;;;;;;;;;15.51;49.81;100931.75;5412114;32;34253;-69
2023/01/07 11:23:40;;;;;;;;;;;;;;;16.11;46.86;100920.75;5402704;32;33932;-69
2023/01/07 11:26:44;;;;;;;;;;;;;;;16.62;45.90;100914.38;5398621;32;33762;-85
2023/01/07 11:29:58;;;;;;;;;;;;;;;16.21;46.58;100909.53;5410985;32;44415;-70
2023/01/07 11:33:04;;;;;;;;;;;;;;;16.22;46.93;100913.03;5395664;32;33431;-69
2023/01/07 11:36:06;;;;;;;;;;;;;;;18.41;42.51;100899.25;5407829;32;34326;-86
2023/01/07 11:39:10;;;;;;;;;;;;;;;19.40;39.56;100899.88;5395643;32;33342;-70
2023/01/07 11:45:39;;;;;;;;;;;;;;;21.50;35.45;100884.78;5411276;32;33537;-68
2023/01/07 11:48:51;;;;;;;;;;;;;;;20.88;35.90;100885.88;5396089;32;33012;-84
2023/01/07 11:51:53;;;;;;;;;;;;;;;20.60;36.39;100880.84;5389449;32;47130;-79
2023/01/07 11:54:55;;;;;;;;;;;;;;;19.13;39.27;100883.09;5398282;32;33698;-70
2023/01/07 11:57:57;;;;;;;;;;;;;;;21.54;35.18;100868.38;5399769;32;34374;-85
2023/01/07 12:01:22;;;;;;;;;;;;;;;22.38;33.33;100863.56;5411679;32;45622;-84
2023/01/07 12:04:27;;;;;;;;;;;;;;;21.38;35.22;100865.19;5397623;32;33024;-69
2023/01/07 12:07:29;;;;;;;;;;;;;;;20.86;35.33;100870.91;5409918;32;34317;-84
2023/01/07 12:10:35;;;;;;;;;;;;;;;20.65;36.47;100852.00;5397176;32;33213;-69
2023/01/07 12:13:38;;;;;;;;;;;;;;;22.77;32.33;100853.25;5405430;32;34311;-69
2023/01/07 12:16:40;;;;;;;;;;;;;;;22.93;31.89;100840.31;5403625;32;34596;-69
2023/01/07 12:19:45;;;;;;;;;;;;;;;23.80;30.87;100834.69;5393986;32;34258;-69
2023/01/07 12:22:59;;;;;;;;;;;;;;;25.35;27.79;100835.81;5411845;32;44620;-84
2023/01/07 12:26:07;;;;;;;;;;;;;;;26.25;26.11;100826.28;5386876;32;33476;-70
2023/01/07 12:29:16;;;;;;;;;;;;;;;27.38;24.70;100823.87;5411836;32;33628;-84
2023/01/07 12:32:18;;;;;;;;;;;;;;;25.87;26.54;100818.25;5396890;32;44706;-69
2023/01/07 12:35:25;;;;;;;;;;;;;;;25.73;27.08;100825.97;5383292;32;33106;-71
2023/01/07 12:38:32;;;;;;;;;;;;;;;26.29;25.87;100816.91;5409359;32;33867;-69
2023/01/07 12:41:42;;;;;;;;;;;;;;;25.90;26.41;100811.72;5394786;32;33755;-77
2023/01/07 12:44:51;;;;;;;;;;;;;;;26.54;25.84;100815.38;5410782;32;32969;-84
2023/01/07 12:47:53;;;;;;;;;;;;;;;26.61;25.19;100808.34;5396456;32;45120;-83
2023/01/07 12:50:56;;;;;;;;;;;;;;;24.07;28.65;100815.28;5391023;32;33764;-84
2023/01/07 12:54:10;;;;;;;;;;;;;;;23.86;29.38;100812.66;5402576;32;34351;-68
2023/01/07 12:57:16;;;;;;;;;;;;;;;23.10;30.34;100806.69;5397480;32;34585;-84
2023/01/07 13:00:23;;;;;;;;;;;;;;;24.81;27.97;100800.44;5413101;32;45630;-84
2023/01/07 13:03:45;;;;;;;;;;;;;;;25.62;27.01;100795.50;5396696;32;34182;-83
2023/01/07 13:06:49;;;;;;;;;;;;;;;27.95;23.81;100796.34;5396030;32;44996;-70
2023/01/07 13:09:55;;;;;;;;;;;;;;;26.14;25.72;100792.31;5410465;32;34706;-86
2023/01/07 13:13:00;;;;;;;;;;;;;;;26.37;25.69;100796.28;5398182;32;34031;-70
2023/01/07 13:16:10;;;;;;;;;;;;;;;25.62;26.07;100795.50;5413666;32;34183;-85
2023/01/07 13:19:12;;;;;;;;;;;;;;;23.65;28.81;100793.94;5400409;32;34200;-85
2023/01/07 13:22:19;;;;;;;;;;;;;;;21.58;32.33;100794.97;5392381;32;34497;-83
2023/01/07 13:25:28;;;;;;;;;;;;;;;19.82;36.11;100804.56;5400727;32;44839;-84
2023/01/07 13:28:39;;;;;;;;;;;;;;;20.24;35.48;100800.63;5396890;32;34631;-84
2023/01/07 13:31:47;;;;;;;;;;;;;;;19.85;36.51;100792.84;5414371;32;33216;-71
2023/01/07 13:35:08;;;;;;;;;;;;;;;19.15;37.79;100794.09;5393706;32;45718;-69
2023/01/07 13:38:10;;;;;;;;;;;;;;;16.55;44.19;100811.28;5409539;32;33834;-84
2023/01/07 13:41:16;;;;;;;;;;;;;;;16.96;43.60;100798.31;5399278;32;34747;-84
2023/01/07 13:44:27;;;;;;;;;;;;;;;17.73;42.17;100797.22;5397227;32;44824;-82
2023/01/07 13:47:38;;;;;;;;;;;;;;;17.39;42.89;100793.06;5413972;32;33451;-70
2023/01/07 13:50:41;;;;;;;;;;;;;;;16.90;44.38;100793.37;5386734;32;33219;-69
2023/01/07 13:53:45;;;;;;;;;;;;;;;16.99;44.06;100792.81;5401650;32;33360;-83
2023/01/07 13:56:47;;;;;;;;;;;;;;;16.44;45.46;100803.97;5397577;32;44181;-86
2023/01/07 13:59:51;;;;;;;;;;;;;;;15.96;47.45;100811.06;5390913;32;33674;-84
2023/01/07 14:02:56;;;;;;;;;;;;;;;16.17;47.69;100819.66;5395048;32;33966;-84
2023/01/07 14:06:17;;;;;;;;;;;;;;;15.08;50.83;100822.75;5396281;32;33830;-85
2023/01/07 14:09:20;;;;;;;;;;;;;;;14.88;52.35;100820.25;5413074;32;43308;-84
2023/01/07 14:12:28;;;;;;;;;;;;;;;14.57;53.34;100819.09;5398837;32;33139;-70
2023/01/07 14:15:50;;;;;;;;;;;;;;;15.95;49.26;100823.44;5409450;32;33087;-82
2023/01/07 14:18:58;;;;;;;;;;;;;;;17.29;45.58;100822.03;5386478;32;45165;-83
2023/01/07 14:22:04;;;;;;;;;;;;;;;16.28;46.84;100826.97;5383209;32;34248;-69
2023/01/07 14:25:09;;;;;;;;;;;;;;;16.45;46.42;100832.22;5396702;32;33946;-79
2023/01/07 14:28:23;;;;;;;;;;;;;;;15.06;50.06;100831.69;5396764;32;35116;-70
2023/01/07 14:31:26;;;;;;;;;;;;;;;14.70;51.07;100829.09;5405908;32;45892;-68
2023/01/07 14:34:28;;;;;;;;;;;;;;;14.62;51.77;100827.69;5386974;32;34217;-76
2023/01/07 14:37:34;;;;;;;;;;;;;;;14.74;51.25;100827.97;5392674;32;34248;-84
2023/01/07 14:40:36;;;;;;;;;;;;;;;14.31;52.53;100830.91;5398892;32;33546;-70
2023/01/07 14:43:47;;;;;;;;;;;;;;;12.86;57.63;100829.41;5395864;32;34257;-69
2023/01/07 14:46:49;;;;;;;;;;;;;;;13.14;56.34;100823.00;5411387;32;45050;-82
2023/01/07 14:50:14;;;;;;;;;;;;;;;13.06;56.95;100817.16;5397942;32;33753;-83
2023/01/07 14:53:35;;;;;;;;;;;;;;;13.17;56.37;100836.03;5359647;32;45277;-85
2023/01/07 14:56:46;;;;;;;;;;;;;;;13.41;55.97;100826.25;5413433;32;33594;-69
2023/01/07 14:59:57;;;;;;;;;;;;;;;12.81;57.58;100838.44;5383340;32;46102;-83
2023/01/07 15:03:02;;;;;;;;;;;;;;;11.23;62.91;100830.37;5412292;32;33159;-83
2023/01/07 15:06:04;;;;;;;;;;;;;;;12.85;58.46;100838.25;5399787;32;34532;-69
2023/01/07 15:16:14;;;;;;;;;;;;;;;12.71;58.82;100830.06;5381985;32;33511;-84
2023/01/07 15:19:16;;;;;;;;;;;;;;;12.32;59.67;100838.62;5402797;32;43705;-69
2023/01/07 15:22:34;;;;;;;;;;;;;;;12.56;59.42;100831.53;5403817;32;34369;-68
2023/01/07 15:25:49;;;;;;;;;;;;;;;11.79;62.63;100833.59;5396877;32;34632;-69
2023/01/07 15:29:17;;;;;;;;;;;;;;;12.18;61.50;100835.69;5412048;32;45061;-85
2023/01/07 15:32:19;;;;;;;;;;;;;;;11.42;64.45;100836.69;5392504;32;46884;-84
2023/01/07 15:35:22;;;;;;;;;;;;;;;11.48;64.08;100840.91;5395866;32;33687;-85
2023/01/07 15:38:28;;;;;;;;;;;;;;;11.78;63.48;100842.41;5406706;32;33265;-84
2023/01/07 15:41:37;;;;;;;;;;;;;;;11.28;64.71;100842.44;5389109;32;35803;-69
2023/01/07 15:44:39;;;;;;;;;;;;;;;11.69;63.77;100848.00;5411542;32;32147;-84
2023/01/07 15:47:42;;;;;;;;;;;;;;;11.25;65.42;100850.44;5396956;32;34264;-83
2023/01/07 15:50:44;;;;;;;;;;;;;;;10.99;67.08;100850.47;5398868;32;35149;-83
2023/01/07 15:53:53;;;;;;;;;;;;;;;10.28;70.19;100846.59;5388271;32;36092;-77
2023/01/07 15:57:04;;;;;;;;;;;;;;;11.11;66.48;100847.44;5398003;32;33130;-68
2023/01/07 16:00:06;;;;;;;;;;;;;;;11.10;66.65;100851.84;5414757;32;34523;-82
2023/01/07 16:03:13;;;;;;;;;;;;;;;11.18;65.98;100859.47;5399105;32;34070;-69
2023/01/07 16:06:33;;;;;;;;;;;;;;;11.18;65.60;100866.50;5413846;32;33426;-83
2023/01/07 16:09:35;;;;;;;;;;;;;;;11.19;65.27;100861.16;5399974;32;34089;-77
2023/01/07 16:12:37;;;;;;;;;;;;;;;10.45;67.09;100870.59;5397508;32;33631;-85